Time;durP1;ratioP1;P1;durP2;ratioP2;P2;SDS_P1;SDS_P2;PMS_P1;PMS_P2;Temp;Humidity;BMP_temperature;BMP_pressure;BME280_temperature;BME280_humidity;BME280_pressure;Samples;Min_cycle;Max_cycle;Signal;HPM_P1;HPM_P2
2023/04/15 00:01:58;;;;;;;18.33;8.50;;;;;;;8.92;100.00;100427.75;5021937;28;20446;-75
2023/04/15 00:04:26;;;;;;;20.02;8.60;;;;;;;8.88;100.00;100422.22;5015070;28;20049;-75
2023/04/15 00:06:53;;;;;;;19.60;8.85;;;;;;;8.82;100.00;100423.00;5011985;28;20061;-74
2023/04/15 00:09:20;;;;;;;19.25;8.75;;;;;;;8.76;100.00;100425.34;5023083;28;20052;-75
2023/04/15 00:11:46;;;;;;;20.85;8.45;;;;;;;8.75;100.00;100423.78;5018119;28;20128;-77
2023/04/15 00:14:13;;;;;;;21.13;8.80;;;;;;;8.69;100.00;100421.78;5019668;28;20056;-74
2023/04/15 00:16:40;;;;;;;22.77;9.70;;;;;;;8.61;100.00;100415.47;5023771;28;20038;-77
2023/04/15 00:19:06;;;;;;;17.85;8.38;;;;;;;8.62;100.00;100424.53;5021262;28;20045;-78
2023/04/15 00:21:33;;;;;;;18.80;8.45;;;;;;;8.55;100.00;100422.56;5012422;28;20057;-76
2023/04/15 00:24:00;;;;;;;18.25;9.18;;;;;;;8.52;100.00;100423.34;5017759;28;20050;-75
2023/04/15 00:26:27;;;;;;;19.10;8.85;;;;;;;8.49;100.00;100421.38;5017922;28;20061;-75
2023/04/15 00:28:53;;;;;;;19.10;9.05;;;;;;;8.48;100.00;100422.56;5019271;28;20049;-75
2023/04/15 00:31:20;;;;;;;17.73;8.75;;;;;;;8.43;100.00;100431.19;5018299;28;20523;-77
2023/04/15 00:33:47;;;;;;;22.30;9.73;;;;;;;8.40;100.00;100426.44;5017759;28;20654;-77
2023/04/15 00:36:14;;;;;;;20.20;8.93;;;;;;;8.39;100.00;100427.63;5026052;28;20066;-74
2023/04/15 00:38:40;;;;;;;19.17;9.10;;;;;;;8.40;100.00;100429.22;5026897;28;20054;-73
2023/04/15 00:41:09;;;;;;;18.40;8.18;;;;;;;8.36;100.00;100425.66;5027789;28;20055;-75
2023/04/15 00:43:35;;;;;;;21.10;9.00;;;;;;;8.37;100.00;100429.97;5017038;28;20057;-73
2023/04/15 00:46:04;;;;;;;20.00;8.93;;;;;;;8.37;100.00;100429.97;5014349;28;20054;-75
2023/04/15 00:48:31;;;;;;;19.33;8.95;;;;;;;8.36;100.00;100422.91;5024079;28;20515;-73
2023/04/15 00:50:58;;;;;;;21.80;9.00;;;;;;;8.37;100.00;100423.69;5021448;28;20061;-75
2023/04/15 00:53:24;;;;;;;20.50;9.23;;;;;;;8.37;100.00;100423.69;5021740;28;20064;-74
2023/04/15 00:55:51;;;;;;;21.88;9.02;;;;;;;8.36;100.00;100431.16;5021231;28;20073;-74
2023/04/15 00:58:18;;;;;;;18.88;8.85;;;;;;;8.31;100.00;100420.53;5025788;28;20167;-77
2023/04/15 01:00:45;;;;;;;20.42;9.27;;;;;;;8.31;100.00;100420.53;5021645;28;20056;-75
2023/04/15 01:03:11;;;;;;;18.92;9.23;;;;;;;8.24;100.00;100414.19;5027585;28;20064;-74
2023/04/15 01:05:38;;;;;;;19.65;9.18;;;;;;;8.26;100.00;100417.38;5026472;28;20053;-74
2023/04/15 01:08:05;;;;;;;18.23;8.23;;;;;;;8.23;100.00;100418.16;5020807;28;20049;-75
2023/04/15 01:10:32;;;;;;;19.85;8.77;;;;;;;8.21;100.00;100424.00;5027639;28;20061;-76
2023/04/15 01:12:59;;;;;;;20.88;8.93;;;;;;;8.17;100.00;100422.41;5023056;28;20128;-73
2023/04/15 01:15:26;;;;;;;19.85;9.23;;;;;;;8.14;100.00;100426.75;5023058;28;20064;-73
2023/04/15 01:17:53;;;;;;;19.67;9.68;;;;;;;8.11;100.00;100427.50;5022364;28;20057;-75
2023/04/15 01:20:21;;;;;;;21.08;10.07;;;;;;;8.12;100.00;100433.78;5019222;28;20056;-71
2023/04/15 01:22:48;;;;;;;18.75;8.45;;;;;;;8.07;100.00;100424.72;5021911;28;20512;-73
2023/04/15 01:25:18;;;;;;;20.63;9.75;;;;;;;8.03;100.00;100421.16;5018546;28;20060;-74
2023/04/15 01:27:45;;;;;;;19.73;9.27;;;;;;;7.97;100.00;100424.69;5029257;28;20042;-73
2023/04/15 01:30:11;;;;;;;22.15;9.65;;;;;;;7.96;100.00;100420.34;5028881;28;20108;-72
2023/04/15 01:32:38;;;;;;;20.35;8.75;;;;;;;7.95;100.00;100421.53;5019936;28;20056;-75
2023/04/15 01:35:05;;;;;;;18.75;8.25;;;;;;;7.93;100.00;100421.09;5022064;28;20045;-72
2023/04/15 01:37:32;;;;;;;21.17;8.88;;;;;;;7.90;100.00;100421.91;5018606;28;20097;-74
2023/04/15 01:39:59;;;;;;;18.27;8.77;;;;;;;7.83;100.00;100417.13;5024630;28;20053;-72
2023/04/15 01:42:26;;;;;;;18.83;9.10;;;;;;;7.78;100.00;100424.97;5022672;28;20053;-76
2023/04/15 01:44:53;;;;;;;22.73;9.65;;;;;;;7.74;100.00;100424.19;5017516;28;20068;-73
2023/04/15 01:47:19;;;;;;;19.33;8.98;;;;;;;7.64;100.00;100408.38;5025536;28;20042;-73
2023/04/15 01:49:46;;;;;;;19.38;9.02;;;;;;;7.64;100.00;100425.72;5024351;28;20042;-75
2023/04/15 01:52:13;;;;;;;21.67;9.95;;;;;;;7.60;100.00;100424.09;5024248;28;20052;-74
2023/04/15 01:54:39;;;;;;;21.65;9.32;;;;;;;7.58;100.00;100418.19;5027044;28;20041;-74
2023/04/15 01:57:06;;;;;;;18.38;8.75;;;;;;;7.55;100.00;100418.94;5022645;28;20041;-74
2023/04/15 01:59:32;;;;;;;18.70;8.02;;;;;;;7.46;100.00;100410.25;5026475;28;20064;-76
2023/04/15 02:01:59;;;;;;;18.63;8.85;;;;;;;7.44;100.00;100423.59;5024228;28;20057;-73
2023/04/15 02:04:26;;;;;;;19.67;8.55;;;;;;;7.40;100.00;100434.56;5012078;28;20062;-74
2023/04/15 02:06:53;;;;;;;21.50;8.77;;;;;;;7.31;100.00;100433.31;5029124;28;20049;-73
2023/04/15 02:09:20;;;;;;;20.65;9.23;;;;;;;7.24;100.00;100427.78;5013224;28;20052;-74
2023/04/15 02:11:46;;;;;;;15.82;7.55;;;;;;;7.21;100.00;100425.78;5016540;28;20050;-74
2023/04/15 02:14:13;;;;;;;23.20;9.65;;;;;;;7.15;100.00;100430.03;5020628;28;20053;-73
2023/04/15 02:16:40;;;;;;;19.75;9.15;;;;;;;7.14;100.00;100431.22;5014408;28;20037;-74
2023/04/15 02:19:06;;;;;;;20.15;9.10;;;;;;;7.15;100.00;100435.53;5014906;28;20077;-74
2023/04/15 02:21:34;;;;;;;17.58;8.70;;;;;;;7.16;100.00;100437.16;5013080;28;20432;-72
2023/04/15 02:24:01;;;;;;;19.30;8.75;;;;;;;7.15;100.00;100435.53;5028999;28;20059;-75
2023/04/15 02:26:31;;;;;;;21.20;9.30;;;;;;;7.14;100.00;100444.97;5021694;28;20689;-73
2023/04/15 02:28:58;;;;;;;19.17;8.15;;;;;;;7.10;100.00;100444.16;5020640;28;20084;-73
2023/04/15 02:31:25;;;;;;;17.73;7.88;;;;;;;7.08;100.00;100439.03;5020567;28;20056;-72
2023/04/15 02:33:52;;;;;;;22.08;8.50;;;;;;;7.06;100.00;100448.84;5017687;28;20571;-75
2023/04/15 02:36:20;;;;;;;21.65;8.95;;;;;;;7.04;100.00;100443.72;5026649;28;20049;-72
2023/04/15 02:38:46;;;;;;;20.50;8.70;;;;;;;7.00;100.00;100447.63;5025161;28;20049;-72
2023/04/15 02:41:13;;;;;;;18.33;8.20;;;;;;;6.95;100.00;100448.75;5026234;28;20451;-71
2023/04/15 02:43:39;;;;;;;19.10;8.05;;;;;;;6.93;100.00;100450.31;5026082;28;20049;-74
2023/04/15 02:46:06;;;;;;;18.77;8.63;;;;;;;6.89;100.00;100441.22;5021174;28;20060;-73
2023/04/15 02:48:32;;;;;;;18.42;8.20;;;;;;;6.88;100.00;100461.63;5011057;28;20061;-72
2023/04/15 02:51:18;;;;;;;18.65;8.60;;;;;;;6.86;100.00;100459.28;5027563;28;20057;-75
2023/04/15 02:53:45;;;;;;;;;;;;;;;6.86;100.00;100466.75;5028220;28;20163;-76
2023/04/15 02:56:11;;;;;;;21.00;9.05;;;;;;;6.85;100.00;100462.41;5021526;28;19941;-77
2023/04/15 02:58:39;;;;;;;17.63;8.85;;;;;;;6.82;100.00;100466.69;5026102;28;20045;-74
2023/04/15 03:01:06;;;;;;;20.63;9.05;;;;;;;6.82;100.00;100471.41;5013445;28;20468;-75
2023/04/15 03:03:33;;;;;;;19.00;8.73;;;;;;;6.80;100.00;100471.00;5012575;28;20077;-74
2023/04/15 03:06:00;;;;;;;19.80;9.77;;;;;;;6.79;100.00;100474.91;5021584;28;20076;-73
2023/04/15 03:08:26;;;;;;;23.30;9.55;;;;;;;6.76;100.00;100476.47;5019354;28;20042;-73
2023/04/15 03:10:53;;;;;;;21.13;8.82;;;;;;;6.77;100.00;100471.75;5014656;28;20071;-74
2023/04/15 03:13:20;;;;;;;18.52;8.82;;;;;;;6.75;100.00;100471.34;5025922;28;20045;-71
2023/04/15 03:15:47;;;;;;;19.30;9.68;;;;;;;6.72;100.00;100478.38;5016083;28;20769;-74
2023/04/15 03:18:13;;;;;;;20.33;9.48;;;;;;;6.65;100.00;100474.78;5009090;28;20502;-74
2023/04/15 03:20:40;;;;;;;19.85;8.98;;;;;;;6.62;100.00;100475.53;5012788;28;20049;-74
2023/04/15 03:23:06;;;;;;;22.38;9.27;;;;;;;6.55;100.00;100472.69;5020369;28;20049;-73
2023/04/15 03:25:34;;;;;;;23.25;8.90;;;;;;;6.55;100.00;100489.97;5012756;28;20088;-73
2023/04/15 03:28:00;;;;;;;17.50;8.45;;;;;;;6.48;100.00;100500.09;5023467;28;20048;-76
2023/04/15 03:30:27;;;;;;;17.65;8.35;;;;;;;6.41;100.00;100489.81;5017792;28;20645;-74
2023/04/15 03:32:54;;;;;;;18.75;9.20;;;;;;;6.36;100.00;100486.59;5026178;28;20053;-75
2023/04/15 03:35:20;;;;;;;22.15;10.18;;;;;;;6.37;100.00;100491.72;5017258;28;20481;-74
2023/04/15 03:37:48;;;;;;;21.80;11.85;;;;;;;6.38;100.00;100493.28;5008869;28;20054;-74
2023/04/15 03:40:14;;;;;;;27.25;11.30;;;;;;;6.43;100.00;100495.72;5021819;28;20557;-75
2023/04/15 03:42:44;;;;;;;22.20;12.30;;;;;;;6.46;100.00;100491.44;5020677;28;20128;-75
2023/04/15 03:45:10;;;;;;;24.95;11.43;;;;;;;6.51;100.00;100499.34;5012136;28;20053;-73
2023/04/15 03:47:37;;;;;;;24.48;11.50;;;;;;;6.52;100.00;100501.72;5023869;28;20057;-75
2023/04/15 03:50:04;;;;;;;22.48;11.82;;;;;;;6.52;100.00;100500.94;5023167;28;20073;-74
2023/04/15 03:52:31;;;;;;;23.02;10.95;;;;;;;6.52;100.00;100504.47;5008935;28;20060;-72
2023/04/15 03:54:57;;;;;;;22.25;11.45;;;;;;;6.55;100.00;100497.44;5012931;28;20050;-74
2023/04/15 03:57:23;;;;;;;23.85;12.35;;;;;;;6.57;100.00;100504.13;5025572;28;20046;-73
2023/04/15 03:59:50;;;;;;;28.25;13.02;;;;;;;6.59;100.00;100503.75;5015018;28;20048;-75
2023/04/15 04:02:16;;;;;;;24.85;12.20;;;;;;;6.59;100.00;100506.50;5011839;28;20049;-74
2023/04/15 04:04:43;;;;;;;25.60;13.20;;;;;;;6.60;100.00;100511.63;5027965;28;20565;-70
2023/04/15 04:07:17;;;;;;;22.98;11.63;;;;;;;6.60;100.00;100508.88;5016617;28;20088;-75
2023/04/15 04:09:43;;;;;;;24.17;11.02;;;;;;;6.62;100.00;100516.75;5018877;28;20056;-72
2023/04/15 04:12:12;;;;;;;24.70;11.82;;;;;;;6.60;100.00;100508.09;5018602;28;20100;-71
2023/04/15 04:14:39;;;;;;;25.20;12.30;;;;;;;6.62;100.00;100505.75;5014365;28;20049;-75
2023/04/15 04:17:09;;;;;;;24.67;11.93;;;;;;;6.64;100.00;100517.16;5008234;28;20045;-73
2023/04/15 04:19:36;;;;;;;26.80;12.68;;;;;;;6.61;100.00;100513.22;5008327;28;20053;-73
2023/04/15 04:22:02;;;;;;;25.73;13.52;;;;;;;6.64;100.00;100515.22;5015790;28;20508;-72
2023/04/15 04:24:30;;;;;;;24.88;12.65;;;;;;;6.66;100.00;100514.84;5011730;28;20064;-72
2023/04/15 04:26:57;;;;;;;26.48;12.68;;;;;;;6.67;100.00;100516.41;5013673;28;20056;-72
2023/04/15 04:29:23;;;;;;;26.60;12.40;;;;;;;6.67;100.00;100524.66;5025475;28;20049;-74
2023/04/15 04:31:50;;;;;;;23.92;11.50;;;;;;;6.66;100.00;100523.88;5025081;28;20049;-74
2023/04/15 04:34:16;;;;;;;24.58;12.80;;;;;;;6.65;100.00;100524.25;5023896;28;20041;-73
2023/04/15 04:36:43;;;;;;;25.13;11.77;;;;;;;6.63;100.00;100527.38;5026862;28;20053;-75
2023/04/15 04:39:09;;;;;;;27.80;12.23;;;;;;;6.62;100.00;100527.75;5027793;28;20518;-76
2023/04/15 04:41:43;;;;;;;26.98;12.63;;;;;;;6.58;100.00;100527.69;5010184;28;20049;-73
2023/04/15 04:44:09;;;;;;;25.55;12.82;;;;;;;6.54;100.00;100531.56;5032809;28;20054;-74
2023/04/15 04:47:10;;;;;;;27.75;13.38;;;;;;;6.54;100.00;100535.13;5014772;28;20056;-74
2023/04/15 04:49:51;;;;;;;26.98;12.82;;;;;;;6.52;100.00;100531.94;5023079;28;20046;-74
2023/04/15 04:52:21;;;;;;;24.95;13.00;;;;;;;6.48;100.00;100533.88;5021021;28;20136;-74
2023/04/15 04:54:48;;;;;;;26.33;13.40;;;;;;;6.48;100.00;100539.34;5022995;28;20583;-71
2023/04/15 04:57:14;;;;;;;27.50;12.70;;;;;;;6.49;100.00;100551.16;5014869;28;20046;-75
2023/04/15 04:59:41;;;;;;;26.00;14.13;;;;;;;6.48;100.00;100546.84;5010979;28;20480;-73
2023/04/15 05:02:08;;;;;;;29.13;14.18;;;;;;;6.48;100.00;100544.84;5015411;28;20057;-76
2023/04/15 05:04:35;;;;;;;26.52;14.45;;;;;;;6.53;100.00;100554.72;5018927;28;20061;-73
2023/04/15 05:07:02;;;;;;;27.38;14.20;;;;;;;6.55;100.00;100555.16;5022071;28;20060;-73
2023/04/15 05:09:31;;;;;;;27.60;13.90;;;;;;;6.58;100.00;100565.41;5026941;28;20071;-75
2023/04/15 05:11:57;;;;;;;31.45;15.55;;;;;;;6.58;100.00;100562.66;5012745;28;20516;-74
2023/04/15 05:14:23;;;;;;;26.25;14.00;;;;;;;6.58;100.00;100565.41;5015074;28;20045;-73
2023/04/15 05:16:50;;;;;;;30.83;14.13;;;;;;;6.55;100.00;100574.41;5013736;28;20064;-73
2023/04/15 05:19:16;;;;;;;27.85;13.63;;;;;;;6.54;100.00;100579.09;5025318;28;20045;-72
2023/04/15 05:21:43;;;;;;;25.25;13.77;;;;;;;6.49;100.00;100576.69;5027045;28;20050;-73
2023/04/15 05:24:10;;;;;;;26.38;13.85;;;;;;;6.46;100.00;100580.19;5017966;28;20076;-74
2023/04/15 05:26:36;;;;;;;28.83;14.63;;;;;;;6.47;100.00;100575.47;5007461;28;20552;-73
2023/04/15 05:29:03;;;;;;;26.05;13.35;;;;;;;6.48;100.00;100583.34;5007295;28;20045;-72
2023/04/15 05:31:30;;;;;;;27.75;14.57;;;;;;;6.49;100.00;100584.13;5016087;28;20054;-73
2023/04/15 05:33:56;;;;;;;31.88;14.40;;;;;;;6.52;100.00;100594.38;5023510;28;20049;-73
2023/04/15 05:36:23;;;;;;;31.67;14.80;;;;;;;6.55;100.00;100601.91;5016945;28;20060;-74
2023/04/15 05:38:49;;;;;;;31.23;14.98;;;;;;;6.57;100.00;100597.59;5007688;28;20072;-71
2023/04/15 05:41:16;;;;;;;29.27;14.63;;;;;;;6.61;100.00;100597.66;5023963;28;20053;-73
2023/04/15 05:43:45;;;;;;;28.40;14.30;;;;;;;6.64;100.00;100600.44;5021954;28;20096;-73
2023/04/15 05:46:11;;;;;;;30.17;14.82;;;;;;;6.69;100.00;100597.38;5019469;28;20048;-72
2023/04/15 05:48:38;;;;;;;30.05;14.98;;;;;;;6.75;100.00;100603.34;5018391;28;20037;-73
2023/04/15 05:51:05;;;;;;;26.75;14.93;;;;;;;6.84;100.00;100603.81;5014943;28;20060;-74
2023/04/15 05:53:32;;;;;;;31.65;15.00;;;;;;;6.91;100.00;100610.19;5020848;28;20041;-73
2023/04/15 05:55:58;;;;;;;31.50;15.02;;;;;;;6.98;100.00;100620.47;5013896;28;20057;-74
2023/04/15 05:58:25;;;;;;;29.63;15.10;;;;;;;7.04;100.00;100624.50;5028363;28;20054;-75
2023/04/15 06:00:52;;;;;;;28.38;15.05;;;;;;;7.09;100.00;100613.94;5017966;28;20145;-74
2023/04/15 06:03:21;;;;;;;27.60;14.90;;;;;;;7.17;100.00;100621.13;5017262;28;20060;-71
2023/04/15 06:05:51;;;;;;;27.17;13.77;;;;;;;7.23;100.00;100624.31;5015471;28;20080;-72
2023/04/15 06:08:18;;;;;;;30.02;15.15;;;;;;;7.27;100.00;100622.41;5018692;28;20049;-74
2023/04/15 06:10:46;;;;;;;27.05;14.07;;;;;;;7.35;100.00;100624.03;5027598;28;20098;-73
2023/04/15 06:13:12;;;;;;;31.80;15.25;;;;;;;7.42;100.00;100633.19;5017648;28;20508;-73
2023/04/15 06:15:39;;;;;;;28.00;15.55;;;;;;;7.46;100.00;100636.75;5028935;28;20042;-74
2023/04/15 06:18:05;;;;;;;30.90;15.55;;;;;;;7.53;100.00;100638.81;5010163;28;20045;-72
2023/04/15 06:20:32;;;;;;;27.25;14.93;;;;;;;7.60;100.00;100636.13;5010327;28;20120;-74
2023/04/15 06:22:58;;;;;;;30.05;15.20;;;;;;;7.70;100.00;100638.19;5018389;28;20049;-74
2023/04/15 06:25:25;;;;;;;28.08;15.18;;;;;;;7.77;100.00;100643.75;5015919;28;20436;-73
2023/04/15 06:27:51;;;;;;;29.17;15.60;;;;;;;7.84;100.00;100644.56;5010180;28;20056;-74
2023/04/15 06:30:18;;;;;;;30.73;16.23;;;;;;;7.94;100.00;100648.63;5009565;28;20081;-73
2023/04/15 06:32:45;;;;;;;32.28;16.17;;;;;;;8.06;100.00;100653.81;5012497;28;20045;-71
2023/04/15 06:35:11;;;;;;;29.10;14.50;;;;;;;8.15;100.00;100653.50;5011129;28;20050;-73
2023/04/15 06:37:38;;;;;;;30.17;16.30;;;;;;;8.29;100.00;100651.66;5013512;28;20045;-74
2023/04/15 06:40:05;;;;;;;31.70;16.05;;;;;;;8.37;100.00;100647.78;5013014;28;20054;-71
2023/04/15 06:42:32;;;;;;;29.17;15.60;;;;;;;8.50;100.00;100646.28;5018921;28;20042;-75
2023/04/15 06:44:59;;;;;;;31.20;15.98;;;;;;;8.65;100.00;100658.19;5019783;28;20060;-74
2023/04/15 06:47:26;;;;;;;27.70;14.90;;;;;;;8.77;100.00;100657.88;5024258;28;20415;-74
2023/04/15 06:49:52;;;;;;;30.27;15.60;;;;;;;8.88;100.00;100659.50;5023595;28;20393;-75
2023/04/15 06:52:19;;;;;;;29.90;16.50;;;;;;;8.98;100.00;100666.25;5018055;28;20067;-74
2023/04/15 06:54:45;;;;;;;29.83;13.82;;;;;;;9.07;100.00;100672.19;5018374;28;20056;-75
2023/04/15 06:57:12;;;;;;;28.20;14.15;;;;;;;9.12;100.00;100656.06;5010388;28;20587;-73
2023/04/15 06:59:38;;;;;;;29.00;13.75;;;;;;;9.23;100.00;100667.13;5012561;28;20049;-75
2023/04/15 07:02:09;;;;;;;27.85;13.85;;;;;;;9.31;100.00;100665.97;5020850;28;20060;-76
2023/04/15 07:04:36;;;;;;;25.00;11.95;;;;;;;9.37;100.00;100662.44;5014016;28;20558;-75
2023/04/15 07:07:03;;;;;;;27.40;14.00;;;;;;;9.48;100.00;100676.28;5021311;28;20456;-76
2023/04/15 07:09:31;;;;;;;26.77;13.23;;;;;;;9.54;100.00;100675.53;5019611;28;20049;-76
2023/04/15 07:11:57;;;;;;;29.83;14.18;;;;;;;9.63;100.00;100683.44;5018761;28;20056;-76
2023/04/15 07:14:24;;;;;;;26.00;12.85;;;;;;;9.71;100.00;100680.28;5019104;28;20046;-76
2023/04/15 07:16:50;;;;;;;26.92;11.82;;;;;;;9.81;100.00;100681.47;5017030;28;20056;-77
2023/04/15 07:19:17;;;;;;;24.77;11.65;;;;;;;9.91;100.00;100684.25;5024233;28;20041;-77
2023/04/15 07:21:43;;;;;;;22.80;11.10;;;;;;;10.04;100.00;100690.19;5019994;28;20041;-77
2023/04/15 07:24:10;;;;;;;21.30;10.00;;;;;;;10.10;100.00;100694.19;5020956;28;20057;-76
2023/04/15 07:26:37;;;;;;;22.20;10.10;;;;;;;10.23;100.00;100690.63;5009455;28;20058;-76
2023/04/15 07:29:03;;;;;;;24.55;11.07;;;;;;;10.25;100.00;100690.22;5021536;28;20076;-77
2023/04/15 07:31:30;;;;;;;21.13;10.82;;;;;;;10.32;100.00;100687.44;5033133;28;20053;-75
2023/04/15 07:33:57;;;;;;;24.90;10.25;;;;;;;10.41;100.00;100696.94;5023973;28;20053;-74
2023/04/15 07:36:24;;;;;;;19.80;9.50;;;;;;;10.49;100.00;100700.47;5026727;28;20068;-75
2023/04/15 07:38:50;;;;;;;22.50;11.02;;;;;;;10.59;100.00;100698.91;5023187;28;20045;-75
2023/04/15 07:41:17;;;;;;;25.45;12.38;;;;;;;10.66;100.00;100704.44;5016819;28;20520;-76
2023/04/15 07:43:44;;;;;;;20.80;9.45;;;;;;;10.75;100.00;100705.59;5019673;28;20045;-74
2023/04/15 07:46:10;;;;;;;20.60;8.85;;;;;;;10.84;100.00;100702.41;5012580;28;20512;-77
2023/04/15 07:48:37;;;;;;;19.42;9.32;;;;;;;10.93;100.00;100697.25;5011565;28;20055;-74
2023/04/15 07:51:04;;;;;;;17.55;8.13;;;;;;;11.03;100.00;100707.50;5028396;28;20050;-73
2023/04/15 07:53:31;;;;;;;18.10;7.65;;;;;;;11.14;100.00;100708.25;5022532;28;20060;-77
2023/04/15 07:55:58;;;;;;;18.65;7.55;;;;;;;11.23;100.00;100705.81;5026785;28;20519;-77
2023/04/15 07:58:25;;;;;;;16.05;6.97;;;;;;;11.29;100.00;100704.22;5025169;28;20055;-75
2023/04/15 08:00:52;;;;;;;22.60;8.93;;;;;;;11.35;100.00;100708.16;5014031;28;20128;-76
2023/04/15 08:03:18;;;;;;;18.98;9.10;;;;;;;11.43;100.00;100718.00;5018623;28;20045;-73
2023/04/15 08:05:46;;;;;;;23.83;10.73;;;;;;;11.53;100.00;100714.41;5027652;28;20111;-76
2023/04/15 08:08:12;;;;;;;18.15;7.80;;;;;;;11.55;100.00;100714.78;5016776;28;20709;-76
2023/04/15 08:10:39;;;;;;;18.35;7.75;;;;;;;11.63;100.00;100725.47;5014287;28;20053;-75
2023/04/15 08:13:06;;;;;;;17.98;7.45;;;;;;;11.62;100.00;100720.31;5023968;28;20071;-74
2023/04/15 08:15:33;;;;;;;17.05;6.63;;;;;;;11.63;100.00;100716.34;5034614;28;20538;-76
2023/04/15 08:18:00;;;;;;;14.40;6.55;;;;;;;11.71;100.00;100723.47;5016926;28;20045;-73
2023/04/15 08:20:26;;;;;;;16.83;7.68;;;;;;;11.74;100.00;100725.41;5021942;28;20114;-73
2023/04/15 08:22:53;;;;;;;20.05;9.05;;;;;;;11.79;100.00;100727.75;5021080;28;20046;-75
2023/04/15 08:25:20;;;;;;;18.58;8.32;;;;;;;11.86;100.00;100727.72;5025325;28;20068;-75
2023/04/15 08:27:46;;;;;;;21.40;8.43;;;;;;;11.94;100.00;100727.25;5018742;28;20056;-77
2023/04/15 08:30:14;;;;;;;19.17;9.48;;;;;;;12.02;100.00;100728.00;5019679;28;20776;-76
2023/04/15 08:32:47;;;;;;;16.42;6.45;;;;;;;12.11;100.00;100726.34;5011117;28;20072;-76
2023/04/15 08:35:14;;;;;;;14.40;5.55;;;;;;;12.15;100.00;100729.13;5026170;28;20055;-76
2023/04/15 08:37:41;;;;;;;16.63;7.20;;;;;;;12.31;100.00;100732.94;5027321;28;20068;-76
2023/04/15 08:40:08;;;;;;;17.63;7.10;;;;;;;12.39;100.00;100733.69;5027919;28;20045;-76
2023/04/15 08:42:40;;;;;;;14.38;6.47;;;;;;;12.43;100.00;100737.97;5026402;28;20060;-75
2023/04/15 08:45:12;;;;;;;16.95;7.38;;;;;;;12.48;100.00;100728.44;5018825;28;20492;-76
2023/04/15 08:47:39;;;;;;;17.55;8.27;;;;;;;12.47;100.00;100729.63;5025678;28;20056;-76
2023/04/15 08:50:08;;;;;;;15.80;7.35;;;;;;;12.42;100.00;100732.84;5023474;28;20064;-73
2023/04/15 08:52:35;;;;;;;14.40;6.65;;;;;;;12.44;100.00;100731.25;5020416;28;20075;-74
2023/04/15 08:55:03;;;;;;;12.93;5.35;;;;;;;12.44;100.00;100739.56;5015458;28;20050;-76
2023/04/15 08:57:30;;;;;;;12.93;5.72;;;;;;;12.49;100.00;100736.34;5026341;28;20049;-75
2023/04/15 08:59:57;;;;;;;12.82;5.65;;;;;;;12.73;100.00;100745.66;5026072;28;20073;-76
2023/04/15 09:02:26;;;;;;;15.43;5.88;;;;;;;12.87;100.00;100739.97;5023916;28;20054;-78
2023/04/15 09:04:53;;;;;;;11.73;5.47;;;;;;;13.02;100.00;100738.63;5021861;28;20054;-76
2023/04/15 09:07:20;;;;;;;12.95;5.30;;;;;;;13.24;100.00;100745.56;5007346;28;20050;-75
2023/04/15 09:09:47;;;;;;;11.65;4.85;;;;;;;13.34;100.00;100746.63;5007783;28;20133;-75
2023/04/15 09:12:15;;;;;;;12.45;5.00;;;;;;;13.32;100.00;100755.38;5012594;28;20046;-78
2023/04/15 09:14:45;;;;;;;14.70;6.10;;;;;;;13.32;100.00;100757.34;5025127;28;20613;-75
2023/04/15 09:17:11;;;;;;;13.95;5.70;;;;;;;13.27;100.00;100766.94;5024979;28;20053;-75
2023/04/15 09:19:38;;;;;;;12.98;5.03;;;;;;;13.30;100.00;100774.47;5012999;28;20073;-75
2023/04/15 09:22:05;;;;;;;10.57;5.10;;;;;;;13.20;100.00;100769.81;5026260;28;20752;-76
2023/04/15 09:24:37;;;;;;;8.25;3.53;;;;;;;13.12;100.00;100773.84;5031357;28;20045;-76
2023/04/15 09:27:05;;;;;;;14.50;5.38;;;;;;;13.06;100.00;100781.03;5026581;28;20108;-76
2023/04/15 09:29:31;;;;;;;12.23;5.72;;;;;;;12.96;100.00;100782.72;5029717;28;20037;-76
2023/04/15 09:32:16;;;;;;;13.75;5.78;;;;;;;12.86;100.00;100791.94;5028307;28;20041;-75
2023/04/15 09:34:43;;;;;;;11.82;5.13;;;;;;;12.91;100.00;100787.94;5031009;28;20045;-76
2023/04/15 09:37:12;;;;;;;15.70;6.40;;;;;;;12.88;100.00;100786.78;5030072;28;20499;-75
2023/04/15 09:39:56;;;;;;;7.78;3.75;;;;;;;12.90;100.00;100801.00;5029887;28;20056;-74
2023/04/15 09:42:24;;;;;;;15.52;6.82;;;;;;;12.91;100.00;100787.94;5021365;28;20468;-76
2023/04/15 09:44:51;;;;;;;14.50;5.07;;;;;;;12.86;100.00;100793.94;5029090;28;20049;-76
2023/04/15 09:47:31;;;;;;;20.85;10.05;;;;;;;12.95;100.00;100802.56;5026425;28;20316;-75
2023/04/15 09:50:00;;;;;;;40.58;17.25;;;;;;;12.91;100.00;100796.25;5017247;28;20050;-75
2023/04/15 09:52:27;;;;;;;15.43;5.90;;;;;;;12.94;100.00;100798.22;5019980;28;20124;-74
2023/04/15 09:54:56;;;;;;;15.90;6.72;;;;;;;12.96;100.00;100802.16;5011336;28;20053;-76
2023/04/15 09:57:23;;;;;;;13.35;5.93;;;;;;;13.05;100.00;100804.47;5021292;28;20053;-75
2023/04/15 09:59:50;;;;;;;15.05;6.57;;;;;;;13.02;100.00;100810.84;5014708;28;20048;-76
2023/04/15 10:02:20;;;;;;;15.95;6.72;;;;;;;13.02;100.00;100810.09;5018496;28;20049;-75
2023/04/15 10:04:47;;;;;;;14.85;6.53;;;;;;;13.03;100.00;100816.00;5019226;28;20610;-75
2023/04/15 10:07:14;;;;;;;15.45;7.05;;;;;;;13.12;100.00;100823.84;5023492;28;20073;-76
2023/04/15 10:09:44;;;;;;;14.60;6.38;;;;;;;13.04;100.00;100816.81;5019772;28;20761;-76
2023/04/15 10:12:11;;;;;;;14.43;5.72;;;;;;;13.15;100.00;100820.25;5036271;28;20435;-76
2023/04/15 10:14:41;;;;;;;13.65;6.32;;;;;;;13.26;100.00;100812.59;5021431;28;20061;-74
2023/04/15 10:17:10;;;;;;;16.15;6.70;;;;;;;13.30;100.00;100815.34;5021801;28;20045;-75
2023/04/15 10:19:37;;;;;;;12.52;5.95;;;;;;;13.39;100.00;100824.00;5020726;28;20042;-76
2023/04/15 10:22:05;;;;;;;14.40;6.43;;;;;;;13.45;100.00;100825.91;5029267;28;20149;-76
2023/04/15 10:24:32;;;;;;;14.45;6.32;;;;;;;13.58;100.00;100826.94;5019208;28;20038;-75
2023/04/15 10:27:00;;;;;;;13.05;5.85;;;;;;;13.51;100.00;100826.22;5022612;28;20041;-75
2023/04/15 10:29:27;;;;;;;18.42;7.63;;;;;;;13.55;100.00;100832.53;5018199;28;20048;-76
2023/04/15 10:31:58;;;;;;;13.93;5.80;;;;;;;13.46;100.00;100832.25;5022654;28;20049;-76
2023/04/15 10:34:26;;;;;;;16.02;6.75;;;;;;;13.47;100.00;100833.81;5023612;28;20048;-76
2023/04/15 10:36:57;;;;;;;13.85;6.28;;;;;;;13.34;100.00;100832.78;5014897;28;20046;-75
2023/04/15 10:39:49;;;;;;;14.88;6.68;;;;;;;13.39;100.00;100835.13;5015453;28;20042;-75
2023/04/15 10:42:18;;;;;;;14.52;5.75;;;;;;;13.46;100.00;100838.59;5010165;28;20123;-74
2023/04/15 10:44:49;;;;;;;13.68;6.75;;;;;;;13.50;100.00;100844.88;5023365;28;20499;-74
2023/04/15 10:47:18;;;;;;;12.82;5.90;;;;;;;13.45;100.00;100845.34;5008610;28;20124;-77
2023/04/15 10:49:46;;;;;;;15.02;6.72;;;;;;;13.40;100.00;100848.56;5042424;28;20045;-75
2023/04/15 10:52:15;;;;;;;13.43;7.05;;;;;;;13.37;100.00;100845.84;5022997;28;20045;-76
2023/04/15 10:54:42;;;;;;;12.60;5.75;;;;;;;13.22;100.00;100850.75;5005204;28;20053;-78
2023/04/15 10:57:13;;;;;;;15.13;6.70;;;;;;;13.23;100.00;100851.53;5017329;28;20057;-75
2023/04/15 11:00:10;;;;;;;17.95;7.72;;;;;;;13.09;100.00;100852.44;5022395;28;20038;-76
2023/04/15 11:02:41;;;;;;;16.92;6.53;;;;;;;12.89;100.00;100845.84;5024053;28;20045;-76
2023/04/15 11:05:09;;;;;;;15.48;6.95;;;;;;;12.82;100.00;100848.69;5021818;28;20112;-77
2023/04/15 11:07:43;;;;;;;13.35;6.00;;;;;;;12.70;100.00;100851.97;5037778;28;22000;-76
2023/04/15 11:10:12;;;;;;;14.85;5.88;;;;;;;12.72;100.00;100855.13;5013398;28;20107;-76
2023/04/15 11:12:40;;;;;;;11.43;4.90;;;;;;;12.74;100.00;100869.41;5012766;28;20085;-76
2023/04/15 11:15:31;;;;;;;16.60;6.93;;;;;;;12.60;100.00;100858.41;5018178;28;20179;-78